sensor_id;sensor_type;location;lat;lon;timestamp;P1;durP1;ratioP1;P2;durP2;ratioP2
19004;SDS011;9635;52.078;8.648;2023-06-10T00:01:58;13.20;;;7.47;;
19004;SDS011;9635;52.078;8.648;2023-06-10T00:07:02;9.23;;;6.60;;
19004;SDS011;9635;52.078;8.648;2023-06-10T00:12:09;10.63;;;6.15;;
19004;SDS011;9635;52.078;8.648;2023-06-10T00:17:12;10.07;;;6.22;;
19004;SDS011;9635;52.078;8.648;2023-06-10T00:22:18;7.32;;;6.32;;
19004;SDS011;9635;52.078;8.648;2023-06-10T00:27:20;11.73;;;6.90;;
19004;SDS011;9635;52.078;8.648;2023-06-10T00:32:23;8.25;;;5.82;;
19004;SDS011;9635;52.078;8.648;2023-06-10T00:37:27;7.45;;;6.03;;
19004;SDS011;9635;52.078;8.648;2023-06-10T00:42:31;7.03;;;5.97;;
19004;SDS011;9635;52.078;8.648;2023-06-10T00:47:34;9.60;;;6.50;;
19004;SDS011;9635;52.078;8.648;2023-06-10T00:52:39;9.40;;;5.90;;
19004;SDS011;9635;52.078;8.648;2023-06-10T00:57:44;11.50;;;5.75;;
19004;SDS011;9635;52.078;8.648;2023-06-10T01:02:49;11.38;;;5.88;;
19004;SDS011;9635;52.078;8.648;2023-06-10T01:07:56;7.68;;;5.55;;
19004;SDS011;9635;52.078;8.648;2023-06-10T01:13:07;9.45;;;5.82;;
19004;SDS011;9635;52.078;8.648;2023-06-10T01:18:13;8.98;;;5.97;;
19004;SDS011;9635;52.078;8.648;2023-06-10T01:23:19;10.07;;;6.28;;
19004;SDS011;9635;52.078;8.648;2023-06-10T01:28:24;6.72;;;5.80;;
19004;SDS011;9635;52.078;8.648;2023-06-10T01:33:35;8.05;;;5.85;;
19004;SDS011;9635;52.078;8.648;2023-06-10T01:38:43;9.88;;;6.00;;
19004;SDS011;9635;52.078;8.648;2023-06-10T01:43:48;12.57;;;6.70;;
19004;SDS011;9635;52.078;8.648;2023-06-10T01:48:51;10.25;;;5.85;;
19004;SDS011;9635;52.078;8.648;2023-06-10T01:53:55;10.75;;;6.07;;
19004;SDS011;9635;52.078;8.648;2023-06-10T01:58:58;8.38;;;6.85;;
19004;SDS011;9635;52.078;8.648;2023-06-10T02:04:01;12.32;;;7.20;;
19004;SDS011;9635;52.078;8.648;2023-06-10T02:09:07;11.27;;;6.93;;
19004;SDS011;9635;52.078;8.648;2023-06-10T02:14:10;11.70;;;6.85;;
19004;SDS011;9635;52.078;8.648;2023-06-10T02:19:13;10.60;;;6.82;;
19004;SDS011;9635;52.078;8.648;2023-06-10T02:24:17;10.68;;;6.75;;
19004;SDS011;9635;52.078;8.648;2023-06-10T02:29:20;10.60;;;6.93;;
19004;SDS011;9635;52.078;8.648;2023-06-10T02:34:23;9.23;;;6.93;;
19004;SDS011;9635;52.078;8.648;2023-06-10T02:39:28;12.43;;;7.07;;
19004;SDS011;9635;52.078;8.648;2023-06-10T02:44:32;7.93;;;6.13;;
19004;SDS011;9635;52.078;8.648;2023-06-10T02:49:37;7.68;;;6.40;;
19004;SDS011;9635;52.078;8.648;2023-06-10T02:54:42;8.32;;;5.90;;
19004;SDS011;9635;52.078;8.648;2023-06-10T02:59:46;11.45;;;6.55;;
19004;SDS011;9635;52.078;8.648;2023-06-10T03:04:49;9.48;;;6.75;;
19004;SDS011;9635;52.078;8.648;2023-06-10T03:09:54;11.75;;;6.30;;
19004;SDS011;9635;52.078;8.648;2023-06-10T03:14:57;11.75;;;6.90;;
19004;SDS011;9635;52.078;8.648;2023-06-10T03:20:04;13.02;;;6.57;;
19004;SDS011;9635;52.078;8.648;2023-06-10T03:25:11;7.80;;;5.90;;
19004;SDS011;9635;52.078;8.648;2023-06-10T03:30:20;10.18;;;6.50;;
19004;SDS011;9635;52.078;8.648;2023-06-10T03:35:23;10.25;;;6.78;;
19004;SDS011;9635;52.078;8.648;2023-06-10T03:40:28;12.68;;;5.93;;
19004;SDS011;9635;52.078;8.648;2023-06-10T03:45:32;9.63;;;5.72;;
19004;SDS011;9635;52.078;8.648;2023-06-10T03:50:36;12.63;;;6.32;;
19004;SDS011;9635;52.078;8.648;2023-06-10T03:55:40;9.13;;;5.95;;
19004;SDS011;9635;52.078;8.648;2023-06-10T04:00:43;9.32;;;6.35;;
19004;SDS011;9635;52.078;8.648;2023-06-10T04:05:46;7.25;;;5.60;;
19004;SDS011;9635;52.078;8.648;2023-06-10T04:10:51;10.68;;;6.68;;
19004;SDS011;9635;52.078;8.648;2023-06-10T04:15:54;8.23;;;6.05;;
19004;SDS011;9635;52.078;8.648;2023-06-10T04:20:57;8.18;;;5.22;;
19004;SDS011;9635;52.078;8.648;2023-06-10T04:26:01;10.65;;;5.68;;
19004;SDS011;9635;52.078;8.648;2023-06-10T04:31:05;9.13;;;6.07;;
19004;SDS011;9635;52.078;8.648;2023-06-10T04:36:08;10.43;;;5.85;;
19004;SDS011;9635;52.078;8.648;2023-06-10T04:41:12;8.65;;;6.07;;
19004;SDS011;9635;52.078;8.648;2023-06-10T04:46:15;9.13;;;5.80;;
19004;SDS011;9635;52.078;8.648;2023-06-10T04:51:18;10.35;;;5.38;;
19004;SDS011;9635;52.078;8.648;2023-06-10T04:56:22;6.60;;;5.35;;
19004;SDS011;9635;52.078;8.648;2023-06-10T05:01:25;6.85;;;5.40;;
19004;SDS011;9635;52.078;8.648;2023-06-10T05:06:29;10.40;;;5.32;;
19004;SDS011;9635;52.078;8.648;2023-06-10T05:11:34;7.47;;;5.03;;
19004;SDS011;9635;52.078;8.648;2023-06-10T05:16:37;9.85;;;5.68;;
19004;SDS011;9635;52.078;8.648;2023-06-10T05:21:40;9.10;;;5.22;;
19004;SDS011;9635;52.078;8.648;2023-06-10T05:26:44;11.07;;;5.93;;
19004;SDS011;9635;52.078;8.648;2023-06-10T05:31:47;10.43;;;5.07;;
19004;SDS011;9635;52.078;8.648;2023-06-10T05:36:50;8.98;;;5.57;;
19004;SDS011;9635;52.078;8.648;2023-06-10T05:41:55;10.75;;;5.15;;
19004;SDS011;9635;52.078;8.648;2023-06-10T05:47:00;9.02;;;4.53;;
19004;SDS011;9635;52.078;8.648;2023-06-10T05:52:03;8.80;;;5.03;;
19004;SDS011;9635;52.078;8.648;2023-06-10T05:57:07;6.43;;;4.68;;
19004;SDS011;9635;52.078;8.648;2023-06-10T06:02:11;11.18;;;4.43;;
19004;SDS011;9635;52.078;8.648;2023-06-10T06:07:14;7.60;;;4.30;;
19004;SDS011;9635;52.078;8.648;2023-06-10T06:12:19;10.23;;;4.65;;
19004;SDS011;9635;52.078;8.648;2023-06-10T06:17:22;9.07;;;5.20;;
19004;SDS011;9635;52.078;8.648;2023-06-10T06:22:24;6.45;;;5.25;;
19004;SDS011;9635;52.078;8.648;2023-06-10T06:27:29;8.77;;;4.95;;
19004;SDS011;9635;52.078;8.648;2023-06-10T06:32:32;9.63;;;4.95;;
19004;SDS011;9635;52.078;8.648;2023-06-10T06:37:35;8.30;;;4.78;;
19004;SDS011;9635;52.078;8.648;2023-06-10T06:42:54;7.22;;;4.53;;
19004;SDS011;9635;52.078;8.648;2023-06-10T06:48:09;4.97;;;4.20;;
19004;SDS011;9635;52.078;8.648;2023-06-10T06:53:13;11.02;;;5.10;;
19004;SDS011;9635;52.078;8.648;2023-06-10T06:58:17;7.57;;;4.72;;
19004;SDS011;9635;52.078;8.648;2023-06-10T07:03:20;6.68;;;4.07;;
19004;SDS011;9635;52.078;8.648;2023-06-10T07:08:23;8.00;;;4.75;;
19004;SDS011;9635;52.078;8.648;2023-06-10T07:13:27;9.70;;;5.22;;
19004;SDS011;9635;52.078;8.648;2023-06-10T07:18:30;10.65;;;4.65;;
19004;SDS011;9635;52.078;8.648;2023-06-10T07:23:33;11.18;;;4.75;;
19004;SDS011;9635;52.078;8.648;2023-06-10T07:28:37;6.70;;;4.45;;
19004;SDS011;9635;52.078;8.648;2023-06-10T07:33:40;8.07;;;4.50;;
19004;SDS011;9635;52.078;8.648;2023-06-10T07:38:44;8.73;;;4.25;;
19004;SDS011;9635;52.078;8.648;2023-06-10T07:43:49;5.70;;;4.07;;
19004;SDS011;9635;52.078;8.648;2023-06-10T07:48:55;5.80;;;3.97;;
19004;SDS011;9635;52.078;8.648;2023-06-10T07:53:58;11.55;;;4.57;;
19004;SDS011;9635;52.078;8.648;2023-06-10T07:59:02;9.13;;;5.03;;
19004;SDS011;9635;52.078;8.648;2023-06-10T08:04:05;13.65;;;4.40;;
19004;SDS011;9635;52.078;8.648;2023-06-10T08:09:09;6.22;;;4.55;;
19004;SDS011;9635;52.078;8.648;2023-06-10T08:14:13;6.25;;;4.35;;
19004;SDS011;9635;52.078;8.648;2023-06-10T08:19:16;7.50;;;4.43;;
19004;SDS011;9635;52.078;8.648;2023-06-10T08:24:19;7.00;;;3.75;;
19004;SDS011;9635;52.078;8.648;2023-06-10T08:29:23;6.32;;;3.90;;
19004;SDS011;9635;52.078;8.648;2023-06-10T08:34:26;7.10;;;3.72;;
19004;SDS011;9635;52.078;8.648;2023-06-10T08:39:29;6.70;;;3.53;;
19004;SDS011;9635;52.078;8.648;2023-06-10T08:44:35;7.05;;;3.85;;
19004;SDS011;9635;52.078;8.648;2023-06-10T08:49:41;5.97;;;4.05;;
19004;SDS011;9635;52.078;8.648;2023-06-10T08:54:48;6.60;;;4.00;;
19004;SDS011;9635;52.078;8.648;2023-06-10T08:59:55;6.50;;;4.13;;
19004;SDS011;9635;52.078;8.648;2023-06-10T09:04:59;7.93;;;4.55;;
19004;SDS011;9635;52.078;8.648;2023-06-10T09:10:02;8.60;;;4.95;;
19004;SDS011;9635;52.078;8.648;2023-06-10T09:15:11;6.00;;;4.55;;
19004;SDS011;9635;52.078;8.648;2023-06-10T09:20:15;8.02;;;4.97;;
19004;SDS011;9635;52.078;8.648;2023-06-10T09:25:18;7.55;;;4.78;;
19004;SDS011;9635;52.078;8.648;2023-06-10T09:30:26;10.10;;;5.55;;
19004;SDS011;9635;52.078;8.648;2023-06-10T09:35:30;7.10;;;4.93;;
19004;SDS011;9635;52.078;8.648;2023-06-10T09:40:33;6.32;;;5.32;;
19004;SDS011;9635;52.078;8.648;2023-06-10T09:45:52;8.32;;;5.22;;
19004;SDS011;9635;52.078;8.648;2023-06-10T09:50:58;7.68;;;5.40;;
19004;SDS011;9635;52.078;8.648;2023-06-10T09:56:01;9.45;;;5.38;;
19004;SDS011;9635;52.078;8.648;2023-06-10T10:01:06;9.43;;;5.40;;
19004;SDS011;9635;52.078;8.648;2023-06-10T10:06:11;6.60;;;5.35;;
19004;SDS011;9635;52.078;8.648;2023-06-10T10:11:16;9.43;;;5.68;;
19004;SDS011;9635;52.078;8.648;2023-06-10T10:16:21;6.72;;;4.80;;
19004;SDS011;9635;52.078;8.648;2023-06-10T10:21:32;7.60;;;4.50;;
19004;SDS011;9635;52.078;8.648;2023-06-10T10:26:40;9.02;;;4.80;;
19004;SDS011;9635;52.078;8.648;2023-06-10T10:31:45;7.80;;;4.75;;
19004;SDS011;9635;52.078;8.648;2023-06-10T10:36:52;7.03;;;4.68;;
19004;SDS011;9635;52.078;8.648;2023-06-10T10:41:56;7.28;;;4.65;;
19004;SDS011;9635;52.078;8.648;2023-06-10T10:47:02;6.20;;;4.28;;
19004;SDS011;9635;52.078;8.648;2023-06-10T10:52:08;6.35;;;4.40;;
19004;SDS011;9635;52.078;8.648;2023-06-10T10:57:14;5.72;;;4.32;;
19004;SDS011;9635;52.078;8.648;2023-06-10T11:02:31;6.18;;;4.70;;
19004;SDS011;9635;52.078;8.648;2023-06-10T11:07:40;6.60;;;4.35;;
19004;SDS011;9635;52.078;8.648;2023-06-10T11:12:52;5.60;;;4.63;;
19004;SDS011;9635;52.078;8.648;2023-06-10T11:18:13;6.93;;;4.43;;
19004;SDS011;9635;52.078;8.648;2023-06-10T11:23:33;7.38;;;4.50;;
19004;SDS011;9635;52.078;8.648;2023-06-10T11:28:37;5.20;;;4.30;;
19004;SDS011;9635;52.078;8.648;2023-06-10T11:33:41;5.43;;;3.90;;
19004;SDS011;9635;52.078;8.648;2023-06-10T11:38:44;8.30;;;4.72;;
19004;SDS011;9635;52.078;8.648;2023-06-10T11:43:48;6.63;;;4.00;;
19004;SDS011;9635;52.078;8.648;2023-06-10T11:48:52;6.85;;;4.15;;
19004;SDS011;9635;52.078;8.648;2023-06-10T11:53:56;6.28;;;4.65;;
19004;SDS011;9635;52.078;8.648;2023-06-10T11:58:59;6.00;;;4.60;;
19004;SDS011;9635;52.078;8.648;2023-06-10T12:04:07;6.13;;;4.57;;
19004;SDS011;9635;52.078;8.648;2023-06-10T12:09:14;4.97;;;4.20;;
19004;SDS011;9635;52.078;8.648;2023-06-10T12:25:30;8.77;;;4.65;;
19004;SDS011;9635;52.078;8.648;2023-06-10T12:30:33;7.18;;;4.70;;
19004;SDS011;9635;52.078;8.648;2023-06-10T12:35:37;5.65;;;4.30;;
19004;SDS011;9635;52.078;8.648;2023-06-10T12:40:50;5.10;;;3.90;;
19004;SDS011;9635;52.078;8.648;2023-06-10T12:45:53;6.43;;;4.22;;
19004;SDS011;9635;52.078;8.648;2023-06-10T12:50:58;4.68;;;3.85;;
19004;SDS011;9635;52.078;8.648;2023-06-10T12:56:01;5.28;;;4.13;;
19004;SDS011;9635;52.078;8.648;2023-06-10T13:01:04;7.80;;;5.85;;
19004;SDS011;9635;52.078;8.648;2023-06-10T13:06:08;7.35;;;4.63;;
19004;SDS011;9635;52.078;8.648;2023-06-10T13:11:11;5.72;;;3.97;;
19004;SDS011;9635;52.078;8.648;2023-06-10T13:16:15;4.50;;;4.10;;
19004;SDS011;9635;52.078;8.648;2023-06-10T13:21:19;5.53;;;4.05;;
19004;SDS011;9635;52.078;8.648;2023-06-10T13:26:22;6.07;;;5.15;;
19004;SDS011;9635;52.078;8.648;2023-06-10T13:31:25;6.75;;;5.40;;
19004;SDS011;9635;52.078;8.648;2023-06-10T13:36:30;6.25;;;5.13;;
19004;SDS011;9635;52.078;8.648;2023-06-10T13:41:33;6.72;;;5.05;;
19004;SDS011;9635;52.078;8.648;2023-06-10T13:46:36;6.35;;;4.72;;
19004;SDS011;9635;52.078;8.648;2023-06-10T13:51:40;7.30;;;5.25;;
19004;SDS011;9635;52.078;8.648;2023-06-10T13:56:43;5.72;;;5.10;;
19004;SDS011;9635;52.078;8.648;2023-06-10T14:01:46;6.32;;;5.05;;
19004;SDS011;9635;52.078;8.648;2023-06-10T14:06:50;8.32;;;5.68;;
19004;SDS011;9635;52.078;8.648;2023-06-10T14:11:53;10.10;;;6.43;;
19004;SDS011;9635;52.078;8.648;2023-06-10T14:16:56;7.53;;;5.68;;
19004;SDS011;9635;52.078;8.648;2023-06-10T14:22:01;7.85;;;5.25;;
19004;SDS011;9635;52.078;8.648;2023-06-10T14:27:07;6.65;;;5.55;;
19004;SDS011;9635;52.078;8.648;2023-06-10T14:32:10;6.60;;;5.60;;
19004;SDS011;9635;52.078;8.648;2023-06-10T14:37:14;6.20;;;5.45;;
19004;SDS011;9635;52.078;8.648;2023-06-10T14:42:17;6.65;;;5.68;;
19004;SDS011;9635;52.078;8.648;2023-06-10T14:47:20;7.03;;;5.63;;
19004;SDS011;9635;52.078;8.648;2023-06-10T14:52:24;8.55;;;5.82;;
19004;SDS011;9635;52.078;8.648;2023-06-10T14:57:27;10.18;;;5.97;;
19004;SDS011;9635;52.078;8.648;2023-06-10T15:02:30;9.45;;;6.53;;
19004;SDS011;9635;52.078;8.648;2023-06-10T15:07:34;13.13;;;6.53;;
19004;SDS011;9635;52.078;8.648;2023-06-10T15:12:37;7.40;;;6.45;;
19004;SDS011;9635;52.078;8.648;2023-06-10T15:17:40;6.82;;;6.10;;
19004;SDS011;9635;52.078;8.648;2023-06-10T15:22:45;6.70;;;5.97;;
19004;SDS011;9635;52.078;8.648;2023-06-10T15:27:47;6.10;;;5.50;;
19004;SDS011;9635;52.078;8.648;2023-06-10T15:32:50;6.90;;;5.90;;
19004;SDS011;9635;52.078;8.648;2023-06-10T15:37:55;7.50;;;6.03;;
19004;SDS011;9635;52.078;8.648;2023-06-10T15:42:58;6.65;;;5.88;;
19004;SDS011;9635;52.078;8.648;2023-06-10T15:48:01;10.05;;;6.85;;
19004;SDS011;9635;52.078;8.648;2023-06-10T15:53:05;8.63;;;6.63;;
19004;SDS011;9635;52.078;8.648;2023-06-10T15:58:08;8.23;;;7.43;;
19004;SDS011;9635;52.078;8.648;2023-06-10T16:03:11;7.22;;;6.13;;
19004;SDS011;9635;52.078;8.648;2023-06-10T16:08:15;6.82;;;6.15;;
19004;SDS011;9635;52.078;8.648;2023-06-10T16:13:18;6.38;;;5.78;;
19004;SDS011;9635;52.078;8.648;2023-06-10T16:18:22;7.65;;;5.65;;
19004;SDS011;9635;52.078;8.648;2023-06-10T16:23:26;9.07;;;6.32;;
19004;SDS011;9635;52.078;8.648;2023-06-10T16:28:29;9.20;;;6.72;;
19004;SDS011;9635;52.078;8.648;2023-06-10T16:33:32;6.45;;;5.85;;
19004;SDS011;9635;52.078;8.648;2023-06-10T16:38:37;6.70;;;6.00;;
19004;SDS011;9635;52.078;8.648;2023-06-10T16:43:39;6.95;;;5.47;;
19004;SDS011;9635;52.078;8.648;2023-06-10T16:48:42;7.47;;;5.32;;
19004;SDS011;9635;52.078;8.648;2023-06-10T16:53:47;7.43;;;5.53;;
19004;SDS011;9635;52.078;8.648;2023-06-10T16:58:50;6.68;;;5.20;;
19004;SDS011;9635;52.078;8.648;2023-06-10T17:03:53;6.88;;;5.55;;
19004;SDS011;9635;52.078;8.648;2023-06-10T17:08:57;7.18;;;5.30;;
19004;SDS011;9635;52.078;8.648;2023-06-10T17:14:00;5.80;;;5.30;;
19004;SDS011;9635;52.078;8.648;2023-06-10T17:19:03;6.35;;;5.55;;
19004;SDS011;9635;52.078;8.648;2023-06-10T17:24:08;6.30;;;5.70;;
19004;SDS011;9635;52.078;8.648;2023-06-10T17:29:11;7.70;;;5.93;;
19004;SDS011;9635;52.078;8.648;2023-06-10T17:34:14;8.70;;;6.10;;
19004;SDS011;9635;52.078;8.648;2023-06-10T17:39:18;8.93;;;6.15;;
19004;SDS011;9635;52.078;8.648;2023-06-10T17:44:21;7.03;;;6.35;;
19004;SDS011;9635;52.078;8.648;2023-06-10T17:49:25;6.60;;;5.75;;
19004;SDS011;9635;52.078;8.648;2023-06-10T17:54:35;7.45;;;6.07;;
19004;SDS011;9635;52.078;8.648;2023-06-10T17:59:37;7.70;;;5.75;;
19004;SDS011;9635;52.078;8.648;2023-06-10T18:04:42;8.88;;;7.07;;
19004;SDS011;9635;52.078;8.648;2023-06-10T18:09:46;7.43;;;6.63;;
19004;SDS011;9635;52.078;8.648;2023-06-10T18:14:49;6.20;;;5.70;;
19004;SDS011;9635;52.078;8.648;2023-06-10T18:19:52;8.50;;;6.07;;
19004;SDS011;9635;52.078;8.648;2023-06-10T18:24:57;8.93;;;6.63;;
19004;SDS011;9635;52.078;8.648;2023-06-10T18:30:01;7.30;;;6.60;;
19004;SDS011;9635;52.078;8.648;2023-06-10T18:35:04;10.07;;;6.55;;
19004;SDS011;9635;52.078;8.648;2023-06-10T18:40:09;6.88;;;6.28;;
19004;SDS011;9635;52.078;8.648;2023-06-10T18:45:12;7.75;;;7.05;;
19004;SDS011;9635;52.078;8.648;2023-06-10T18:50:15;7.55;;;6.70;;
19004;SDS011;9635;52.078;8.648;2023-06-10T18:55:19;10.27;;;7.28;;
19004;SDS011;9635;52.078;8.648;2023-06-10T19:00:22;9.25;;;6.75;;
19004;SDS011;9635;52.078;8.648;2023-06-10T19:05:25;7.10;;;6.25;;
19004;SDS011;9635;52.078;8.648;2023-06-10T19:10:30;7.50;;;5.95;;
19004;SDS011;9635;52.078;8.648;2023-06-10T19:15:32;6.63;;;5.53;;
19004;SDS011;9635;52.078;8.648;2023-06-10T19:20:35;6.75;;;5.82;;
19004;SDS011;9635;52.078;8.648;2023-06-10T19:25:42;6.85;;;5.82;;
19004;SDS011;9635;52.078;8.648;2023-06-10T19:30:45;6.47;;;5.88;;
19004;SDS011;9635;52.078;8.648;2023-06-10T19:35:47;6.55;;;5.95;;
19004;SDS011;9635;52.078;8.648;2023-06-10T19:40:52;6.40;;;5.82;;
19004;SDS011;9635;52.078;8.648;2023-06-10T19:45:54;7.38;;;5.72;;
19004;SDS011;9635;52.078;8.648;2023-06-10T19:50:57;9.48;;;5.57;;
19004;SDS011;9635;52.078;8.648;2023-06-10T19:56:02;8.75;;;5.55;;
19004;SDS011;9635;52.078;8.648;2023-06-10T20:01:04;11.05;;;5.95;;
19004;SDS011;9635;52.078;8.648;2023-06-10T20:06:07;6.22;;;5.60;;
19004;SDS011;9635;52.078;8.648;2023-06-10T20:11:12;6.85;;;6.15;;
19004;SDS011;9635;52.078;8.648;2023-06-10T20:16:14;8.82;;;6.20;;
19004;SDS011;9635;52.078;8.648;2023-06-10T20:21:18;6.07;;;5.47;;
19004;SDS011;9635;52.078;8.648;2023-06-10T20:26:23;9.23;;;6.38;;
19004;SDS011;9635;52.078;8.648;2023-06-10T20:31:26;6.63;;;5.78;;
19004;SDS011;9635;52.078;8.648;2023-06-10T20:36:29;6.90;;;6.20;;
19004;SDS011;9635;52.078;8.648;2023-06-10T20:41:34;6.68;;;5.97;;
19004;SDS011;9635;52.078;8.648;2023-06-10T20:46:37;7.10;;;6.50;;
19004;SDS011;9635;52.078;8.648;2023-06-10T20:51:40;7.45;;;6.53;;
19004;SDS011;9635;52.078;8.648;2023-06-10T20:56:44;10.13;;;6.90;;
19004;SDS011;9635;52.078;8.648;2023-06-10T21:01:47;11.75;;;8.23;;
19004;SDS011;9635;52.078;8.648;2023-06-10T21:06:51;9.73;;;8.15;;
19004;SDS011;9635;52.078;8.648;2023-06-10T21:11:55;11.13;;;8.27;;
19004;SDS011;9635;52.078;8.648;2023-06-10T21:16:58;11.60;;;8.15;;
19004;SDS011;9635;52.078;8.648;2023-06-10T21:22:01;8.35;;;7.40;;
19004;SDS011;9635;52.078;8.648;2023-06-10T21:27:07;8.45;;;6.63;;
19004;SDS011;9635;52.078;8.648;2023-06-10T21:32:10;8.30;;;6.72;;
19004;SDS011;9635;52.078;8.648;2023-06-10T21:37:13;7.45;;;6.75;;
19004;SDS011;9635;52.078;8.648;2023-06-10T21:42:18;8.85;;;7.97;;
19004;SDS011;9635;52.078;8.648;2023-06-10T21:47:21;7.07;;;6.45;;
19004;SDS011;9635;52.078;8.648;2023-06-10T21:52:24;7.20;;;6.53;;
19004;SDS011;9635;52.078;8.648;2023-06-10T21:57:28;8.05;;;6.80;;
19004;SDS011;9635;52.078;8.648;2023-06-10T22:02:31;10.25;;;7.50;;
19004;SDS011;9635;52.078;8.648;2023-06-10T22:07:34;7.88;;;6.82;;
19004;SDS011;9635;52.078;8.648;2023-06-10T22:12:39;7.22;;;6.50;;
19004;SDS011;9635;52.078;8.648;2023-06-10T22:17:42;6.88;;;6.28;;
19004;SDS011;9635;52.078;8.648;2023-06-10T22:22:45;9.65;;;7.18;;
19004;SDS011;9635;52.078;8.648;2023-06-10T22:27:49;8.90;;;8.00;;
19004;SDS011;9635;52.078;8.648;2023-06-10T22:32:52;9.32;;;7.53;;
19004;SDS011;9635;52.078;8.648;2023-06-10T22:37:55;9.80;;;7.60;;
19004;SDS011;9635;52.078;8.648;2023-06-10T22:42:59;9.00;;;7.35;;
19004;SDS011;9635;52.078;8.648;2023-06-10T22:48:02;8.55;;;7.50;;
19004;SDS011;9635;52.078;8.648;2023-06-10T22:53:05;9.45;;;7.47;;
19004;SDS011;9635;52.078;8.648;2023-06-10T22:58:10;8.70;;;7.85;;
19004;SDS011;9635;52.078;8.648;2023-06-10T23:03:12;10.10;;;8.57;;
19004;SDS011;9635;52.078;8.648;2023-06-10T23:08:15;9.43;;;8.05;;
19004;SDS011;9635;52.078;8.648;2023-06-10T23:13:20;9.70;;;8.65;;
19004;SDS011;9635;52.078;8.648;2023-06-10T23:18:22;13.75;;;9.30;;
19004;SDS011;9635;52.078;8.648;2023-06-10T23:23:25;10.35;;;9.25;;
19004;SDS011;9635;52.078;8.648;2023-06-10T23:28:35;11.60;;;8.48;;
19004;SDS011;9635;52.078;8.648;2023-06-10T23:33:38;9.73;;;8.73;;
19004;SDS011;9635;52.078;8.648;2023-06-10T23:38:42;11.23;;;9.98;;
19004;SDS011;9635;52.078;8.648;2023-06-10T23:43:46;10.45;;;9.27;;
19004;SDS011;9635;52.078;8.648;2023-06-10T23:48:49;9.95;;;8.95;;
19004;SDS011;9635;52.078;8.648;2023-06-10T23:53:52;12.75;;;8.10;;
19004;SDS011;9635;52.078;8.648;2023-06-10T23:58:56;9.98;;;8.95;;
